sensor_id;sensor_type;location;lat;lon;timestamp;pressure;altitude;pressure_sealevel;temperature;humidity
6829;BME280;17930;48.592;8.868;2024-02-21T00:01:34;97792.28;;;4.44;100.00
6829;BME280;17930;48.592;8.868;2024-02-21T00:04:01;97800.72;;;4.20;100.00
6829;BME280;17930;48.592;8.868;2024-02-21T00:06:28;97794.38;;;4.22;100.00
6829;BME280;17930;48.592;8.868;2024-02-21T00:08:56;97795.53;;;4.26;100.00
6829;BME280;17930;48.592;8.868;2024-02-21T00:11:22;97798.09;;;4.26;100.00
6829;BME280;17930;48.592;8.868;2024-02-21T00:13:49;97799.63;;;4.40;100.00
6829;BME280;17930;48.592;8.868;2024-02-21T00:16:16;97789.22;;;4.22;100.00
6829;BME280;17930;48.592;8.868;2024-02-21T00:18:43;97794.03;;;4.06;100.00
6829;BME280;17930;48.592;8.868;2024-02-21T00:21:10;97786.91;;;4.02;100.00
6829;BME280;17930;48.592;8.868;2024-02-21T00:23:40;97790.88;;;4.04;100.00
6829;BME280;17930;48.592;8.868;2024-02-21T00:26:08;97774.94;;;4.13;100.00
6829;BME280;17930;48.592;8.868;2024-02-21T00:28:35;97768.22;;;4.06;100.00
6829;BME280;17930;48.592;8.868;2024-02-21T00:31:02;97761.69;;;4.04;100.00
6829;BME280;17930;48.592;8.868;2024-02-21T00:33:29;97768.31;;;3.87;100.00
6829;BME280;17930;48.592;8.868;2024-02-21T00:35:56;97770.72;;;3.82;100.00
6829;BME280;17930;48.592;8.868;2024-02-21T00:38:22;97777.06;;;3.86;100.00
6829;BME280;17930;48.592;8.868;2024-02-21T00:40:49;97787.81;;;3.76;100.00
6829;BME280;17930;48.592;8.868;2024-02-21T00:43:17;97780.38;;;3.99;100.00
6829;BME280;17930;48.592;8.868;2024-02-21T00:45:44;97775.91;;;4.19;100.00
6829;BME280;17930;48.592;8.868;2024-02-21T00:48:11;97777.09;;;4.16;100.00
6829;BME280;17930;48.592;8.868;2024-02-21T00:50:38;97780.38;;;4.36;100.00
6829;BME280;17930;48.592;8.868;2024-02-21T00:53:04;97776.03;;;4.37;100.00
6829;BME280;17930;48.592;8.868;2024-02-21T00:55:31;97768.84;;;4.39;100.00
6829;BME280;17930;48.592;8.868;2024-02-21T00:57:58;97762.91;;;4.38;100.00
6829;BME280;17930;48.592;8.868;2024-02-21T01:00:26;97761.38;;;4.24;100.00
6829;BME280;17930;48.592;8.868;2024-02-21T01:02:53;97760.19;;;4.27;100.00
6829;BME280;17930;48.592;8.868;2024-02-21T01:05:20;97753.06;;;4.22;100.00
6829;BME280;17930;48.592;8.868;2024-02-21T01:07:48;97753.22;;;4.27;100.00
6829;BME280;17930;48.592;8.868;2024-02-21T01:10:14;97746.41;;;4.08;100.00
6829;BME280;17930;48.592;8.868;2024-02-21T01:12:42;97738.72;;;4.26;100.00
6829;BME280;17930;48.592;8.868;2024-02-21T01:15:09;97734.41;;;4.20;100.00
6829;BME280;17930;48.592;8.868;2024-02-21T01:17:38;97728.91;;;4.10;100.00
6829;BME280;17930;48.592;8.868;2024-02-21T01:20:07;97727.16;;;4.05;100.00
6829;BME280;17930;48.592;8.868;2024-02-21T01:22:33;97728.16;;;4.34;100.00
6829;BME280;17930;48.592;8.868;2024-02-21T01:25:00;97727.50;;;4.45;100.00
6829;BME280;17930;48.592;8.868;2024-02-21T01:27:27;97716.75;;;4.48;100.00
6829;BME280;17930;48.592;8.868;2024-02-21T01:29:53;97708.41;;;4.46;100.00
6829;BME280;17930;48.592;8.868;2024-02-21T01:32:21;97706.84;;;4.45;100.00
6829;BME280;17930;48.592;8.868;2024-02-21T01:34:51;97700.94;;;4.38;100.00
6829;BME280;17930;48.592;8.868;2024-02-21T01:37:18;97698.94;;;4.40;100.00
6829;BME280;17930;48.592;8.868;2024-02-21T01:39:44;97695.78;;;4.38;100.00
6829;BME280;17930;48.592;8.868;2024-02-21T01:42:11;97692.25;;;4.33;100.00
6829;BME280;17930;48.592;8.868;2024-02-21T01:44:38;97688.69;;;4.27;100.00
6829;BME280;17930;48.592;8.868;2024-02-21T01:47:05;97685.97;;;4.22;100.00
6829;BME280;17930;48.592;8.868;2024-02-21T01:49:32;97687.22;;;4.38;100.00
6829;BME280;17930;48.592;8.868;2024-02-21T01:52:00;97682.69;;;4.33;100.00
6829;BME280;17930;48.592;8.868;2024-02-21T01:54:28;97680.38;;;4.25;100.00
6829;BME280;17930;48.592;8.868;2024-02-21T01:56:56;97674.09;;;4.39;100.00
6829;BME280;17930;48.592;8.868;2024-02-21T01:59:23;97662.78;;;4.40;100.00
6829;BME280;17930;48.592;8.868;2024-02-21T02:01:50;97654.47;;;4.38;100.00
6829;BME280;17930;48.592;8.868;2024-02-21T02:04:19;97649.31;;;4.38;100.00
6829;BME280;17930;48.592;8.868;2024-02-21T02:06:46;97640.34;;;4.41;100.00
6829;BME280;17930;48.592;8.868;2024-02-21T02:09:14;97638.81;;;4.33;100.00
6829;BME280;17930;48.592;8.868;2024-02-21T02:11:42;97639.91;;;4.19;100.00
6829;BME280;17930;48.592;8.868;2024-02-21T02:14:09;97640.97;;;4.36;100.00
6829;BME280;17930;48.592;8.868;2024-02-21T02:16:36;97632.13;;;4.26;100.00
6829;BME280;17930;48.592;8.868;2024-02-21T02:19:02;97625.88;;;4.09;100.00
6829;BME280;17930;48.592;8.868;2024-02-21T02:21:32;97624.50;;;4.06;100.00
6829;BME280;17930;48.592;8.868;2024-02-21T02:24:03;97622.94;;;4.06;100.00
6829;BME280;17930;48.592;8.868;2024-02-21T02:26:30;97617.78;;;4.06;100.00
6829;BME280;17930;48.592;8.868;2024-02-21T02:28:57;97614.25;;;4.24;100.00
6829;BME280;17930;48.592;8.868;2024-02-21T02:31:23;97622.44;;;4.21;100.00
6829;BME280;17930;48.592;8.868;2024-02-21T02:33:50;97615.69;;;4.20;100.00
6829;BME280;17930;48.592;8.868;2024-02-21T02:36:17;97617.16;;;4.34;100.00
6829;BME280;17930;48.592;8.868;2024-02-21T02:38:44;97610.84;;;4.30;100.00
6829;BME280;17930;48.592;8.868;2024-02-21T02:41:12;97610.50;;;4.20;100.00
6829;BME280;17930;48.592;8.868;2024-02-21T02:43:39;97609.72;;;4.20;100.00
6829;BME280;17930;48.592;8.868;2024-02-21T02:46:05;97598.22;;;4.22;100.00
6829;BME280;17930;48.592;8.868;2024-02-21T02:48:32;97592.19;;;4.28;100.00
6829;BME280;17930;48.592;8.868;2024-02-21T02:50:59;97595.72;;;4.34;100.00
6829;BME280;17930;48.592;8.868;2024-02-21T02:53:26;97591.03;;;4.24;100.00
6829;BME280;17930;48.592;8.868;2024-02-21T02:55:53;97576.97;;;4.20;100.00
6829;BME280;17930;48.592;8.868;2024-02-21T02:58:21;97587.91;;;4.16;100.00
6829;BME280;17930;48.592;8.868;2024-02-21T03:00:48;97575.53;;;4.24;100.00
6829;BME280;17930;48.592;8.868;2024-02-21T03:03:15;97584.16;;;4.36;100.00
6829;BME280;17930;48.592;8.868;2024-02-21T03:05:42;97585.47;;;4.21;100.00
6829;BME280;17930;48.592;8.868;2024-02-21T03:08:08;97583.53;;;4.16;100.00
6829;BME280;17930;48.592;8.868;2024-02-21T03:10:35;97568.28;;;4.57;100.00
6829;BME280;17930;48.592;8.868;2024-02-21T03:13:02;97559.38;;;4.53;100.00
6829;BME280;17930;48.592;8.868;2024-02-21T03:15:31;97556.97;;;4.58;100.00
6829;BME280;17930;48.592;8.868;2024-02-21T03:17:58;97551.41;;;4.37;100.00
6829;BME280;17930;48.592;8.868;2024-02-21T03:20:25;97549.84;;;4.11;100.00
6829;BME280;17930;48.592;8.868;2024-02-21T03:22:52;97554.09;;;4.00;100.00
6829;BME280;17930;48.592;8.868;2024-02-21T03:25:19;97553.53;;;3.98;100.00
6829;BME280;17930;48.592;8.868;2024-02-21T03:27:46;97544.78;;;3.99;100.00
6829;BME280;17930;48.592;8.868;2024-02-21T03:30:13;97554.78;;;3.89;100.00
6829;BME280;17930;48.592;8.868;2024-02-21T03:32:41;97549.47;;;3.84;100.00
6829;BME280;17930;48.592;8.868;2024-02-21T03:35:08;97541.16;;;4.06;100.00
6829;BME280;17930;48.592;8.868;2024-02-21T03:37:35;97538.94;;;4.09;100.00
6829;BME280;17930;48.592;8.868;2024-02-21T03:40:02;97552.56;;;4.16;100.00
6829;BME280;17930;48.592;8.868;2024-02-21T03:42:29;97535.53;;;4.33;100.00
6829;BME280;17930;48.592;8.868;2024-02-21T03:44:56;97524.22;;;4.34;100.00
6829;BME280;17930;48.592;8.868;2024-02-21T03:47:24;97526.16;;;4.39;100.00
6829;BME280;17930;48.592;8.868;2024-02-21T03:49:52;97521.63;;;4.34;100.00
6829;BME280;17930;48.592;8.868;2024-02-21T03:52:18;97526.25;;;4.32;100.00
6829;BME280;17930;48.592;8.868;2024-02-21T03:54:45;97518.88;;;4.11;100.00
6829;BME280;17930;48.592;8.868;2024-02-21T03:57:12;97506.28;;;4.39;100.00
6829;BME280;17930;48.592;8.868;2024-02-21T03:59:39;97502.84;;;4.27;100.00
6829;BME280;17930;48.592;8.868;2024-02-21T04:02:06;97497.63;;;4.34;100.00
6829;BME280;17930;48.592;8.868;2024-02-21T04:04:34;97500.94;;;4.41;100.00
6829;BME280;17930;48.592;8.868;2024-02-21T04:07:04;97501.38;;;4.13;100.00
6829;BME280;17930;48.592;8.868;2024-02-21T04:09:32;97495.88;;;4.10;100.00
6829;BME280;17930;48.592;8.868;2024-02-21T04:12:00;97499.50;;;4.03;100.00
6829;BME280;17930;48.592;8.868;2024-02-21T04:14:27;97494.75;;;4.00;100.00
6829;BME280;17930;48.592;8.868;2024-02-21T04:16:54;97495.59;;;3.94;100.00
6829;BME280;17930;48.592;8.868;2024-02-21T04:19:21;97494.75;;;4.00;100.00
6829;BME280;17930;48.592;8.868;2024-02-21T04:21:47;97489.25;;;3.96;100.00
6829;BME280;17930;48.592;8.868;2024-02-21T04:24:16;97496.19;;;3.96;100.00
6829;BME280;17930;48.592;8.868;2024-02-21T04:26:42;97494.44;;;3.90;100.00
6829;BME280;17930;48.592;8.868;2024-02-21T04:29:10;97495.59;;;3.94;100.00
6829;BME280;17930;48.592;8.868;2024-02-21T04:31:36;97488.56;;;3.83;100.00
6829;BME280;17930;48.592;8.868;2024-02-21T04:34:03;97493.38;;;3.73;100.00
6829;BME280;17930;48.592;8.868;2024-02-21T04:36:31;97489.47;;;3.70;100.00
6829;BME280;17930;48.592;8.868;2024-02-21T04:38:58;97493.56;;;4.02;100.00
6829;BME280;17930;48.592;8.868;2024-02-21T04:41:26;97486.88;;;3.95;100.00
6829;BME280;17930;48.592;8.868;2024-02-21T04:43:53;97486.25;;;3.75;100.00
6829;BME280;17930;48.592;8.868;2024-02-21T04:46:19;97483.50;;;3.70;100.00
6829;BME280;17930;48.592;8.868;2024-02-21T04:48:46;97480.00;;;3.64;100.00
6829;BME280;17930;48.592;8.868;2024-02-21T04:51:13;97480.59;;;3.60;100.00
6829;BME280;17930;48.592;8.868;2024-02-21T04:53:39;97492.41;;;3.43;100.00
6829;BME280;17930;48.592;8.868;2024-02-21T04:56:06;97488.19;;;3.24;100.00
6829;BME280;17930;48.592;8.868;2024-02-21T04:58:37;97489.34;;;3.28;100.00
6829;BME280;17930;48.592;8.868;2024-02-21T05:01:04;97494.94;;;3.25;100.00
6829;BME280;17930;48.592;8.868;2024-02-21T05:03:31;97484.44;;;3.51;100.00
6829;BME280;17930;48.592;8.868;2024-02-21T05:05:59;97490.00;;;3.55;100.00
6829;BME280;17930;48.592;8.868;2024-02-21T05:08:25;97489.66;;;3.45;100.00
6829;BME280;17930;48.592;8.868;2024-02-21T05:10:52;97505.63;;;3.53;100.00
6829;BME280;17930;48.592;8.868;2024-02-21T05:13:19;97505.06;;;3.51;100.00
6829;BME280;17930;48.592;8.868;2024-02-21T05:15:47;97497.25;;;3.64;100.00
6829;BME280;17930;48.592;8.868;2024-02-21T05:18:14;97484.66;;;3.50;100.00
6829;BME280;17930;48.592;8.868;2024-02-21T05:20:40;97461.91;;;3.40;100.00
6829;BME280;17930;48.592;8.868;2024-02-21T05:23:08;97464.97;;;3.55;100.00
6829;BME280;17930;48.592;8.868;2024-02-21T05:25:34;97475.06;;;3.32;100.00
6829;BME280;17930;48.592;8.868;2024-02-21T05:28:01;97461.66;;;3.17;100.00
6829;BME280;17930;48.592;8.868;2024-02-21T05:30:29;97454.22;;;3.09;100.00
6829;BME280;17930;48.592;8.868;2024-02-21T05:32:57;97452.78;;;3.13;100.00
6829;BME280;17930;48.592;8.868;2024-02-21T05:35:26;97453.31;;;3.22;100.00
6829;BME280;17930;48.592;8.868;2024-02-21T05:37:53;97439.53;;;3.65;100.00
6829;BME280;17930;48.592;8.868;2024-02-21T05:40:20;97439.19;;;3.55;100.00
6829;BME280;17930;48.592;8.868;2024-02-21T05:42:46;97430.25;;;3.33;100.00
6829;BME280;17930;48.592;8.868;2024-02-21T05:45:13;97441.06;;;3.17;100.00
6829;BME280;17930;48.592;8.868;2024-02-21T05:47:41;97423.53;;;3.02;100.00
6829;BME280;17930;48.592;8.868;2024-02-21T05:50:10;97435.31;;;3.46;100.00
6829;BME280;17930;48.592;8.868;2024-02-21T05:52:36;97436.25;;;3.76;100.00
6829;BME280;17930;48.592;8.868;2024-02-21T05:55:04;97437.94;;;3.64;100.00
6829;BME280;17930;48.592;8.868;2024-02-21T05:57:33;97429.50;;;3.75;100.00
6829;BME280;17930;48.592;8.868;2024-02-21T05:59:59;97432.41;;;3.60;100.00
6829;BME280;17930;48.592;8.868;2024-02-21T06:02:27;97431.56;;;3.42;100.00
6829;BME280;17930;48.592;8.868;2024-02-21T06:04:54;97429.41;;;3.39;100.00
6829;BME280;17930;48.592;8.868;2024-02-21T06:07:22;97416.97;;;3.36;100.00
6829;BME280;17930;48.592;8.868;2024-02-21T06:09:49;97423.63;;;3.19;100.00
6829;BME280;17930;48.592;8.868;2024-02-21T06:12:15;97413.09;;;3.45;100.00
6829;BME280;17930;48.592;8.868;2024-02-21T06:14:42;97405.78;;;3.66;100.00
6829;BME280;17930;48.592;8.868;2024-02-21T06:17:09;97413.78;;;3.58;100.00
6829;BME280;17930;48.592;8.868;2024-02-21T06:19:36;97412.81;;;3.53;100.00
6829;BME280;17930;48.592;8.868;2024-02-21T06:22:03;97429.44;;;3.08;100.00
6829;BME280;17930;48.592;8.868;2024-02-21T06:24:34;97425.25;;;2.77;100.00
6829;BME280;17930;48.592;8.868;2024-02-21T06:27:01;97418.69;;;2.81;100.00
6829;BME280;17930;48.592;8.868;2024-02-21T06:29:28;97423.38;;;2.97;100.00
6829;BME280;17930;48.592;8.868;2024-02-21T06:31:55;97426.94;;;2.96;100.00
6829;BME280;17930;48.592;8.868;2024-02-21T06:34:22;97423.69;;;2.76;100.00
6829;BME280;17930;48.592;8.868;2024-02-21T06:36:49;97430.81;;;2.74;100.00
6829;BME280;17930;48.592;8.868;2024-02-21T06:39:16;97429.81;;;2.75;100.00
6829;BME280;17930;48.592;8.868;2024-02-21T06:41:44;97431.47;;;2.63;100.00
6829;BME280;17930;48.592;8.868;2024-02-21T06:44:12;97436.56;;;2.76;100.00
6829;BME280;17930;48.592;8.868;2024-02-21T06:46:39;97438.66;;;2.85;100.00
6829;BME280;17930;48.592;8.868;2024-02-21T06:49:05;97432.00;;;3.08;100.00
6829;BME280;17930;48.592;8.868;2024-02-21T06:51:32;97422.81;;;3.43;100.00
6829;BME280;17930;48.592;8.868;2024-02-21T06:54:00;97410.19;;;3.84;100.00
6829;BME280;17930;48.592;8.868;2024-02-21T06:56:26;97412.44;;;3.74;100.00
6829;BME280;17930;48.592;8.868;2024-02-21T06:58:55;97416.09;;;3.66;100.00
6829;BME280;17930;48.592;8.868;2024-02-21T07:01:22;97412.22;;;3.57;100.00
6829;BME280;17930;48.592;8.868;2024-02-21T07:03:49;97392.38;;;3.58;100.00
6829;BME280;17930;48.592;8.868;2024-02-21T07:06:16;97398.78;;;3.73;100.00
6829;BME280;17930;48.592;8.868;2024-02-21T07:08:43;97395.88;;;4.06;100.00
6829;BME280;17930;48.592;8.868;2024-02-21T07:11:09;97397.16;;;3.97;100.00
6829;BME280;17930;48.592;8.868;2024-02-21T07:13:37;97388.13;;;4.23;100.00
6829;BME280;17930;48.592;8.868;2024-02-21T07:16:06;97385.97;;;4.38;100.00
6829;BME280;17930;48.592;8.868;2024-02-21T07:18:33;97389.81;;;4.47;100.00
6829;BME280;17930;48.592;8.868;2024-02-21T07:21:00;97390.66;;;4.59;100.00
6829;BME280;17930;48.592;8.868;2024-02-21T07:23:26;97388.38;;;4.69;100.00
6829;BME280;17930;48.592;8.868;2024-02-21T07:25:53;97391.34;;;4.95;100.00
6829;BME280;17930;48.592;8.868;2024-02-21T07:28:20;97384.38;;;4.96;100.00
6829;BME280;17930;48.592;8.868;2024-02-21T07:30:46;97368.78;;;5.02;100.00
6829;BME280;17930;48.592;8.868;2024-02-21T07:33:14;97365.78;;;5.16;100.00
6829;BME280;17930;48.592;8.868;2024-02-21T07:35:41;97368.72;;;5.08;100.00
6829;BME280;17930;48.592;8.868;2024-02-21T07:38:10;97352.53;;;5.24;100.00
6829;BME280;17930;48.592;8.868;2024-02-21T07:40:37;97348.75;;;5.38;100.00
6829;BME280;17930;48.592;8.868;2024-02-21T07:43:04;97349.41;;;5.45;100.00
6829;BME280;17930;48.592;8.868;2024-02-21T07:45:31;97350.66;;;5.54;100.00
6829;BME280;17930;48.592;8.868;2024-02-21T07:47:58;97339.94;;;5.62;100.00
6829;BME280;17930;48.592;8.868;2024-02-21T07:50:26;97340.53;;;5.87;100.00
6829;BME280;17930;48.592;8.868;2024-02-21T07:52:52;97341.28;;;5.99;100.00
6829;BME280;17930;48.592;8.868;2024-02-21T07:55:19;97325.50;;;6.11;100.00
6829;BME280;17930;48.592;8.868;2024-02-21T07:57:46;97330.56;;;6.18;100.00
6829;BME280;17930;48.592;8.868;2024-02-21T08:00:13;97335.63;;;6.24;100.00
6829;BME280;17930;48.592;8.868;2024-02-21T08:02:45;97334.44;;;6.43;100.00
6829;BME280;17930;48.592;8.868;2024-02-21T08:05:12;97332.94;;;6.47;100.00
6829;BME280;17930;48.592;8.868;2024-02-21T08:07:40;97332.56;;;6.55;100.00
6829;BME280;17930;48.592;8.868;2024-02-21T08:10:07;97333.66;;;6.43;100.00
6829;BME280;17930;48.592;8.868;2024-02-21T08:12:34;97330.97;;;6.65;100.00
6829;BME280;17930;48.592;8.868;2024-02-21T08:15:02;97334.19;;;6.72;100.00
6829;BME280;17930;48.592;8.868;2024-02-21T08:17:29;97324.84;;;6.71;100.00
6829;BME280;17930;48.592;8.868;2024-02-21T08:19:57;97322.16;;;7.11;100.00
6829;BME280;17930;48.592;8.868;2024-02-21T08:22:23;97321.09;;;7.61;100.00
6829;BME280;17930;48.592;8.868;2024-02-21T08:24:52;97324.09;;;8.12;100.00
6829;BME280;17930;48.592;8.868;2024-02-21T08:27:19;97320.34;;;8.67;100.00
6829;BME280;17930;48.592;8.868;2024-02-21T08:29:46;97314.50;;;8.81;100.00
6829;BME280;17930;48.592;8.868;2024-02-21T08:32:12;97305.81;;;8.70;100.00
6829;BME280;17930;48.592;8.868;2024-02-21T08:34:39;97303.25;;;9.07;100.00
6829;BME280;17930;48.592;8.868;2024-02-21T08:37:06;97305.47;;;9.19;100.00
6829;BME280;17930;48.592;8.868;2024-02-21T08:39:33;97301.97;;;9.04;100.00
6829;BME280;17930;48.592;8.868;2024-02-21T08:42:02;97299.25;;;8.63;100.00
6829;BME280;17930;48.592;8.868;2024-02-21T08:44:28;97300.50;;;8.34;100.00
6829;BME280;17930;48.592;8.868;2024-02-21T08:46:55;97295.41;;;8.44;100.00
6829;BME280;17930;48.592;8.868;2024-02-21T08:49:22;97292.97;;;8.59;100.00
6829;BME280;17930;48.592;8.868;2024-02-21T08:51:49;97290.31;;;8.54;100.00
6829;BME280;17930;48.592;8.868;2024-02-21T08:54:15;97281.09;;;8.68;100.00
6829;BME280;17930;48.592;8.868;2024-02-21T08:56:43;97283.16;;;8.66;100.00
6829;BME280;17930;48.592;8.868;2024-02-21T08:59:11;97278.00;;;8.45;100.00
6829;BME280;17930;48.592;8.868;2024-02-21T09:01:38;97269.50;;;8.54;100.00
6829;BME280;17930;48.592;8.868;2024-02-21T09:04:05;97273.16;;;8.53;100.00
6829;BME280;17930;48.592;8.868;2024-02-21T09:06:32;97258.22;;;8.70;100.00
6829;BME280;17930;48.592;8.868;2024-02-21T09:09:01;97261.44;;;8.82;100.00
6829;BME280;17930;48.592;8.868;2024-02-21T09:11:29;97259.47;;;8.94;100.00
6829;BME280;17930;48.592;8.868;2024-02-21T09:13:55;97246.53;;;9.04;100.00
6829;BME280;17930;48.592;8.868;2024-02-21T09:16:24;97243.03;;;9.24;100.00
6829;BME280;17930;48.592;8.868;2024-02-21T09:18:51;97245.31;;;9.52;100.00
6829;BME280;17930;48.592;8.868;2024-02-21T09:21:21;97244.69;;;9.40;100.00
6829;BME280;17930;48.592;8.868;2024-02-21T09:23:47;97242.19;;;9.55;100.00
6829;BME280;17930;48.592;8.868;2024-02-21T09:26:14;97235.28;;;9.80;100.00
6829;BME280;17930;48.592;8.868;2024-02-21T09:28:42;97242.44;;;10.10;100.00
6829;BME280;17930;48.592;8.868;2024-02-21T09:31:09;97245.13;;;10.39;100.00
6829;BME280;17930;48.592;8.868;2024-02-21T09:33:38;97232.16;;;10.74;100.00
6829;BME280;17930;48.592;8.868;2024-02-21T09:36:06;97240.22;;;11.32;100.00
6829;BME280;17930;48.592;8.868;2024-02-21T09:38:32;97231.06;;;11.54;100.00
6829;BME280;17930;48.592;8.868;2024-02-21T09:41:09;97231.06;;;11.54;100.00
6829;BME280;17930;48.592;8.868;2024-02-21T09:43:38;97223.31;;;12.50;100.00
6829;BME280;17930;48.592;8.868;2024-02-21T09:46:08;97215.66;;;13.25;100.00
6829;BME280;17930;48.592;8.868;2024-02-21T09:48:50;97221.69;;;13.26;100.00
6829;BME280;17930;48.592;8.868;2024-02-21T09:51:23;97218.84;;;12.94;100.00
6829;BME280;17930;48.592;8.868;2024-02-21T09:53:50;97210.28;;;13.12;100.00
6829;BME280;17930;48.592;8.868;2024-02-21T09:56:17;97206.44;;;13.28;100.00
6829;BME280;17930;48.592;8.868;2024-02-21T09:58:44;97205.25;;;13.67;100.00
6829;BME280;17930;48.592;8.868;2024-02-21T10:01:13;97207.16;;;14.26;100.00
6829;BME280;17930;48.592;8.868;2024-02-21T10:03:39;97196.84;;;13.93;100.00
6829;BME280;17930;48.592;8.868;2024-02-21T10:06:08;97196.06;;;13.69;100.00
6829;BME280;17930;48.592;8.868;2024-02-21T10:08:34;97201.53;;;13.49;100.00
6829;BME280;17930;48.592;8.868;2024-02-21T10:11:01;97195.66;;;13.11;100.00
6829;BME280;17930;48.592;8.868;2024-02-21T10:13:29;97199.97;;;12.92;100.00
6829;BME280;17930;48.592;8.868;2024-02-21T10:16:03;97179.31;;;13.19;100.00
6829;BME280;17930;48.592;8.868;2024-02-21T10:18:30;97184.09;;;12.78;100.00
6829;BME280;17930;48.592;8.868;2024-02-21T10:21:04;97165.66;;;12.93;100.00
6829;BME280;17930;48.592;8.868;2024-02-21T10:23:43;97176.22;;;12.83;100.00
6829;BME280;17930;48.592;8.868;2024-02-21T10:26:10;97183.03;;;12.46;100.00
6829;BME280;17930;48.592;8.868;2024-02-21T10:28:38;97168.91;;;13.14;100.00
6829;BME280;17930;48.592;8.868;2024-02-21T10:31:08;97170.78;;;13.31;100.00
6829;BME280;17930;48.592;8.868;2024-02-21T10:33:35;97165.38;;;13.23;100.00
6829;BME280;17930;48.592;8.868;2024-02-21T10:36:07;97161.03;;;13.37;100.00
6829;BME280;17930;48.592;8.868;2024-02-21T10:38:35;97160.75;;;13.15;100.00
6829;BME280;17930;48.592;8.868;2024-02-21T10:41:04;97155.81;;;13.37;100.00
6829;BME280;17930;48.592;8.868;2024-02-21T10:43:38;97146.16;;;13.32;100.00
6829;BME280;17930;48.592;8.868;2024-02-21T10:46:06;97140.84;;;13.14;100.00
6829;BME280;17930;48.592;8.868;2024-02-21T10:48:42;97138.50;;;13.59;100.00
6829;BME280;17930;48.592;8.868;2024-02-21T10:51:14;97131.16;;;13.38;100.00
6829;BME280;17930;48.592;8.868;2024-02-21T10:53:44;97125.56;;;13.44;100.00
6829;BME280;17930;48.592;8.868;2024-02-21T10:56:22;97130.97;;;13.76;100.00
6829;BME280;17930;48.592;8.868;2024-02-21T10:58:49;97125.31;;;13.87;100.00
6829;BME280;17930;48.592;8.868;2024-02-21T11:01:18;97119.59;;;13.62;100.00
6829;BME280;17930;48.592;8.868;2024-02-21T11:03:47;97111.38;;;13.27;100.00
6829;BME280;17930;48.592;8.868;2024-02-21T11:06:17;97105.06;;;13.51;100.00
6829;BME280;17930;48.592;8.868;2024-02-21T11:08:44;97100.78;;;13.79;100.00
6829;BME280;17930;48.592;8.868;2024-02-21T11:11:12;97100.13;;;14.05;100.00
6829;BME280;17930;48.592;8.868;2024-02-21T11:13:44;97093.59;;;13.84;100.00
6829;BME280;17930;48.592;8.868;2024-02-21T11:16:20;97088.44;;;13.37;100.00
6829;BME280;17930;48.592;8.868;2024-02-21T11:18:48;97075.84;;;13.39;100.00
6829;BME280;17930;48.592;8.868;2024-02-21T11:21:14;97076.78;;;13.48;100.00
6829;BME280;17930;48.592;8.868;2024-02-21T11:23:41;97062.63;;;13.49;100.00
6829;BME280;17930;48.592;8.868;2024-02-21T11:26:08;97065.88;;;13.41;100.00
6829;BME280;17930;48.592;8.868;2024-02-21T11:28:35;97058.56;;;13.38;100.00
6829;BME280;17930;48.592;8.868;2024-02-21T11:31:11;97059.22;;;13.67;100.00
6829;BME280;17930;48.592;8.868;2024-02-21T11:33:40;97056.69;;;13.81;100.00
6829;BME280;17930;48.592;8.868;2024-02-21T11:36:08;97054.34;;;13.42;100.00
6829;BME280;17930;48.592;8.868;2024-02-21T11:38:34;97041.97;;;13.66;100.00
6829;BME280;17930;48.592;8.868;2024-02-21T11:41:02;97028.38;;;14.33;100.00
6829;BME280;17930;48.592;8.868;2024-02-21T11:43:29;97030.28;;;14.72;100.00
6829;BME280;17930;48.592;8.868;2024-02-21T11:45:59;97024.84;;;14.82;100.00
6829;BME280;17930;48.592;8.868;2024-02-21T11:48:28;97023.75;;;14.56;100.00
6829;BME280;17930;48.592;8.868;2024-02-21T11:50:56;97015.13;;;14.83;100.00
6829;BME280;17930;48.592;8.868;2024-02-21T11:53:23;97000.81;;;14.75;100.00
6829;BME280;17930;48.592;8.868;2024-02-21T11:55:50;97004.72;;;14.91;100.00
6829;BME280;17930;48.592;8.868;2024-02-21T11:58:17;96997.91;;;15.03;100.00
6829;BME280;17930;48.592;8.868;2024-02-21T12:00:44;96998.97;;;14.62;100.00
6829;BME280;17930;48.592;8.868;2024-02-21T12:03:11;96992.84;;;14.80;100.00
6829;BME280;17930;48.592;8.868;2024-02-21T12:05:39;96983.91;;;14.68;100.00
6829;BME280;17930;48.592;8.868;2024-02-21T12:08:07;96981.38;;;15.03;100.00
6829;BME280;17930;48.592;8.868;2024-02-21T12:10:35;96970.53;;;15.66;100.00
6829;BME280;17930;48.592;8.868;2024-02-21T12:13:06;96960.44;;;15.60;100.00
6829;BME280;17930;48.592;8.868;2024-02-21T12:15:34;96958.41;;;15.22;100.00
6829;BME280;17930;48.592;8.868;2024-02-21T12:18:00;96952.53;;;15.11;100.00
6829;BME280;17930;48.592;8.868;2024-02-21T12:20:27;96950.53;;;15.43;100.00
6829;BME280;17930;48.592;8.868;2024-02-21T12:22:56;96946.47;;;15.38;100.00
6829;BME280;17930;48.592;8.868;2024-02-21T12:25:24;96943.50;;;15.17;100.00
6829;BME280;17930;48.592;8.868;2024-02-21T12:27:52;96944.81;;;14.93;100.00
6829;BME280;17930;48.592;8.868;2024-02-21T12:30:19;96936.09;;;15.19;100.00
6829;BME280;17930;48.592;8.868;2024-02-21T12:32:46;96924.63;;;15.29;100.00
6829;BME280;17930;48.592;8.868;2024-02-21T12:35:13;96905.84;;;15.22;100.00
6829;BME280;17930;48.592;8.868;2024-02-21T12:37:40;96916.97;;;14.92;100.00
6829;BME280;17930;48.592;8.868;2024-02-21T12:40:10;96908.19;;;14.96;100.00
6829;BME280;17930;48.592;8.868;2024-02-21T12:42:38;96912.22;;;14.67;100.00
6829;BME280;17930;48.592;8.868;2024-02-21T12:45:06;96910.19;;;14.64;100.00
6829;BME280;17930;48.592;8.868;2024-02-21T12:47:33;96904.56;;;14.44;100.00
6829;BME280;17930;48.592;8.868;2024-02-21T12:50:00;96903.06;;;14.25;100.00
6829;BME280;17930;48.592;8.868;2024-02-21T12:52:29;96906.13;;;14.45;100.00
6829;BME280;17930;48.592;8.868;2024-02-21T12:54:56;96887.06;;;14.66;100.00
6829;BME280;17930;48.592;8.868;2024-02-21T12:57:25;96878.25;;;14.84;100.00
6829;BME280;17930;48.592;8.868;2024-02-21T12:59:52;96879.47;;;15.00;100.00
6829;BME280;17930;48.592;8.868;2024-02-21T13:02:19;96877.28;;;14.93;100.00
6829;BME280;17930;48.592;8.868;2024-02-21T13:04:46;96877.78;;;15.17;100.00
6829;BME280;17930;48.592;8.868;2024-02-21T13:07:13;96867.59;;;15.16;100.00
6829;BME280;17930;48.592;8.868;2024-02-21T13:09:40;96850.94;;;15.07;100.00